• Join FlightAware (Why Join?)
  • Login
  • US Flag 
02:54PM EDT


 

Airport Tracker/Info


-or-


 

Live Flight TrackerFlight Track Log ✈ KAP29 ✈ 13-Jun-2013 ✈ KBOS - KSLK

Flight Track Log - Related Links

Times and Time Zones

All times are in EDT time to prevent confusion due to time zone crossing. See the KAP29 flight status page for this flight to view local times or setup timezone preferences in your user account.

Time Position Orientation Groundspeed Altitude Reporting Facility
EDT Latitude Longitude Course Direction KTS MPH feet Rate Location/Type
01:13PM 42.3667 -71.0167 236° Southwest 100 115 400  Level KA90
01:14PM 42.3500 -71.0500 236° Southwest 113 130 1,400 660 Climbing KA90
01:15PM 42.3500 -71.0833 270° West 121 139 1,900 420 Climbing KA90
01:16PM 42.3667 -71.1333 294° West 124 143 2,400 480 Climbing KA90
01:17PM 42.3667 -71.1833 270° West 137 158 3,000 540 Climbing KA90
01:18PM 42.4000 -71.2000 340° North 122 140 3,500 480 Climbing KA90
01:19PM 42.4333 -71.2333 324° Northwest 125 144 4,000 600 Climbing KA90
01:20PM 42.4667 -71.2333 360° North 124 143 4,700 600 Climbing KA90
01:22PM 42.5333 -71.2667 340° North 124 143 5,900 480 Climbing KA90
01:23PM 42.5667 -71.2667 360° North 140 161 6,100 480 Climbing KA90
01:24PM 42.6000 -71.2833 340° North 126 145 6,900 660 Climbing KA90
01:25PM 42.6333 -71.3000 340° North 128 147 7,500 480 Climbing KA90
01:26PM 42.6667 -71.3167 340° North 125 144 7,900 240 Climbing KA90
01:27PM 42.7000 -71.3167 360° North 141 162 8,000  Climbing KA90
01:28PM 42.7500 -71.3333 346° North 161 185 8,000  Level KA90
01:29PM 42.8000 -71.3500 346° North 166 191 8,000  Level KA90
01:30PM 42.8333 -71.3667 340° North 165 190 8,000  Level KA90
01:31PM 42.8833 -71.3833 346° North 166 191 8,000  Level KA90
01:32PM 42.9167 -71.4333 312° West 165 190 8,000  Level KA90
01:33PM 42.9333 -71.4833 294° West 165 190 8,000  Level KA90
01:34PM 42.9667 -71.5167 324° Northwest 167 192 8,000  Level KA90
01:35PM 43.0000 -71.5667 312° West 165 190 8,000  Level KA90
01:36PM 43.0333 -71.6167 312° West 156 180 8,000  Level KA90
01:37PM 43.0667 -71.6500 324° Northwest 153 176 8,000  Level KA90
01:38PM 43.0833 -71.7000 295° West 153 176 8,000  Level KA90
01:39PM 43.1167 -71.7333 324° Northwest 152 175 8,000  Level KA90
01:39PM 43.1278 -71.7603 299° West 153 176 8,000  Level Boston Center
01:40PM 43.1614 -71.8081 314° West 158 182 8,000  Level Boston Center
01:41PM 43.1867 -71.8450 313° West 147 169 8,000  Level Boston Center
01:42PM 43.2181 -71.8903 314° West 147 169 8,000  Level Boston Center
01:43PM 43.2433 -71.9272 313° West 147 169 8,000  Level Boston Center
01:44PM 43.2747 -71.9753 312° West 147 169 8,000  Level Boston Center
01:45PM 43.3000 -72.0122 313° West 147 169 8,000  Level Boston Center
01:46PM 43.3314 -72.0606 312° West 153 176 8,000  Level Boston Center
01:47PM 43.3586 -72.1003 313° West 153 176 8,000  Level Boston Center
01:48PM 43.3900 -72.1458 313° West 153 176 8,000  Level Boston Center
01:49PM 43.4192 -72.1886 313° West 158 182 8,000  Level Boston Center
01:50PM 43.4506 -72.2314 315° West 158 182 8,000  Level Boston Center
01:51PM 43.4797 -72.2797 310° West 158 182 8,000  Level Boston Center
01:52PM 43.5069 -72.3283 308° West 158 182 8,000  Level Boston Center
01:53PM 43.5383 -72.3714 315° West 158 182 8,000  Level Boston Center
01:54PM 43.5675 -72.4144 313° West 158 182 8,000  Level Boston Center
01:55PM 43.5986 -72.4631 311° West 158 182 8,000  Level Boston Center
01:56PM 43.6278 -72.5061 313° West 158 182 8,000  Level Boston Center
01:57PM 43.6592 -72.5519 313° West 158 182 8,000  Level Boston Center
01:58PM 43.6883 -72.5981 311° West 158 182 8,000  Level Boston Center
01:59PM 43.7214 -72.6469 313° West 158 182 8,000 -60 Level Boston Center
02:00PM 43.7528 -72.6903 315° West 158 182 7,900 -60 Descending Boston Center
02:01PM 43.7775 -72.7306 310° West 158 182 7,900  Level Boston Center
02:02PM 43.8108 -72.7825 312° West 158 182 7,900  Level Boston Center
02:03PM 43.8439 -72.8286 315° West 158 182 7,900  Level Boston Center
02:04PM 43.8731 -72.8750 311° West 158 182 7,900  Level Boston Center
02:05PM 43.9039 -72.9214 313° West 158 182 7,900  Level Boston Center
02:06PM 43.9372 -72.9678 315° West 158 182 7,900  Level Boston Center
02:07PM 43.9681 -73.0169 311° West 158 182 7,900  Level Boston Center
02:08PM 44.0033 -73.0692 313° West 158 182 7,900  Level Boston Center
02:09PM 44.0322 -73.1158 311° West 158 182 7,900  Level Boston Center
02:10PM 44.0633 -73.1625 313° West 158 182 7,900  Level Boston Center
02:11PM 44.0964 -73.2061 317° Northwest 158 182 7,900  Level Boston Center
02:12PM 44.1272 -73.2556 311° West 158 182 7,900  Level Boston Center
02:13PM 44.1581 -73.3053 311° West 158 182 7,900  Level Boston Center
02:14PM 44.1911 -73.3550 313° West 158 182 7,900  Level Boston Center
02:15PM 44.2219 -73.4047 311° West 163 188 7,900  Level Boston Center
02:16PM 44.2569 -73.4547 314° West 163 188 7,900  Level Boston Center
02:17PM 44.2878 -73.5014 313° West 163 188 7,900  Level Boston Center
02:19PM 44.3196 -73.5500 312° West  Level FlightAware Approximate
02:20PM 44.3800 -73.6483 312° West 174 200 7,900  Level Boston Center
02:21PM 44.4128 -73.6897 318° Northwest 174 200 7,900  Level Boston Center
02:22PM 44.4436 -73.7397 311° West 168 193 7,900  Level Boston Center
02:23PM 44.4742 -73.7900 310° West 168 193 7,900  Level Boston Center
02:24PM 44.5050 -73.8344 314° West 168 193 8,000  Climbing Boston Center
02:25PM 44.5356 -73.8817 312° West 168 193 8,000 -420 Level Boston Center
02:26PM 44.5536 -73.9492 291° West 174 200 7,200 -840 Descending Boston Center